Time;durP1;ratioP1;P1;durP2;ratioP2;P2;SDS_P1;SDS_P2;PMS_P1;PMS_P2;Temp;Humidity;BMP_temperature;BMP_pressure;BME280_temperature;BME280_humidity;BME280_pressure;Samples;Min_cycle;Max_cycle;Signal;HPM_P1;HPM_P2
2022/04/16 00:02:02;;;;;;;4.43;1.33;;;7.90;99.90;;;;;;5092964;28;20487;-72
2022/04/16 00:04:28;;;;;;;2.35;1.17;;;7.80;99.90;;;;;;5076038;28;20036;-72
2022/04/16 00:06:55;;;;;;;1.70;1.13;;;7.70;99.90;;;;;;5092937;28;20115;-73
2022/04/16 00:09:20;;;;;;;3.03;1.17;;;7.50;99.90;;;;;;5076225;28;20043;-73
2022/04/16 00:11:46;;;;;;;0.40;0.30;;;7.60;99.90;;;;;;5092977;28;20040;-73
2022/04/16 00:14:12;;;;;;;2.55;1.30;;;7.40;99.90;;;;;;5076356;28;20174;-73
2022/04/16 00:16:38;;;;;;;3.60;1.58;;;7.40;99.90;;;;;;5076163;28;20126;-73
2022/04/16 00:19:04;;;;;;;3.92;0.90;;;7.50;99.90;;;;;;5076146;28;20050;-73
2022/04/16 00:21:30;;;;;;;4.03;0.70;;;7.10;99.90;;;;;;5059199;28;20044;-73
2022/04/16 00:23:57;;;;;;;2.05;1.02;;;7.70;99.90;;;;;;5092409;28;20058;-73
2022/04/16 00:26:23;;;;;;;4.32;1.80;;;7.30;99.90;;;;;;5075912;28;20398;-73
2022/04/16 00:28:50;;;;;;;1.30;0.57;;;7.70;99.90;;;;;;5092751;28;20076;-73
2022/04/16 00:31:16;;;;;;;1.52;0.90;;;7.60;99.90;;;;;;5092779;28;20556;-73
2022/04/16 00:33:41;;;;;;;1.42;0.93;;;7.40;99.90;;;;;;5092700;28;20032;-73
2022/04/16 00:36:07;;;;;;;2.42;1.40;;;6.90;99.90;;;;;;5092772;28;20048;-73
2022/04/16 00:38:33;;;;;;;1.85;1.17;;;;;;;;;;5075563;28;20520;-73
2022/04/16 00:41:02;;;;;;;0.63;0.52;;;7.00;99.90;;;;;;5092268;28;20036;-73
2022/04/16 00:43:28;;;;;;;2.28;1.13;;;7.50;99.90;;;;;;5092705;28;20081;-72
2022/04/16 00:45:55;;;;;;;4.63;1.58;;;6.70;99.90;;;;;;5092489;28;20487;-73
2022/04/16 00:48:21;;;;;;;5.72;1.58;;;6.80;99.90;;;;;;5092493;28;20101;-73
2022/04/16 00:50:52;;;;;;;1.38;0.85;;;6.80;99.90;;;;;;5075490;28;20051;-73
2022/04/16 00:53:18;;;;;;;2.92;0.90;;;6.60;99.90;;;;;;5092187;28;20047;-73
2022/04/16 00:55:44;;;;;;;5.80;1.23;;;6.50;99.90;;;;;;5075436;28;20376;-73
2022/04/16 00:58:10;;;;;;;2.40;1.00;;;6.20;99.90;;;;;;5092255;28;20385;-73
2022/04/16 01:00:36;;;;;;;2.55;1.20;;;6.40;99.90;;;;;;5075116;28;20046;-73
2022/04/16 01:03:02;;;;;;;3.83;0.63;;;6.10;99.90;;;;;;5092117;28;20074;-73
2022/04/16 01:05:28;;;;;;;0.98;0.93;;;6.30;99.90;;;;;;5092268;28;20525;-74
2022/04/16 01:07:58;;;;;;;2.05;0.50;;;6.20;99.90;;;;;;5091906;28;20040;-73
2022/04/16 01:10:29;;;;;;;1.65;0.80;;;6.10;99.90;;;;;;5074962;28;20050;-73
2022/04/16 01:12:56;;;;;;;2.95;0.85;;;6.20;99.90;;;;;;5092018;28;20093;-73
2022/04/16 01:15:23;;;;;;;1.63;0.77;;;6.20;99.90;;;;;;5091388;28;20376;-74
2022/04/16 01:17:50;;;;;;;2.60;1.50;;;6.10;99.90;;;;;;5091604;28;20097;-73
2022/04/16 01:20:17;;;;;;;1.85;1.20;;;6.10;99.90;;;;;;5074685;28;20510;-73
2022/04/16 01:22:50;;;;;;;3.90;1.85;;;6.10;99.90;;;;;;5091466;28;20040;-73
2022/04/16 01:25:17;;;;;;;4.32;1.27;;;6.80;99.90;;;;;;5074458;28;20408;-73
2022/04/16 01:27:43;;;;;;;1.23;0.82;;;6.10;99.90;;;;;;5074663;28;20111;-73
2022/04/16 01:30:13;;;;;;;2.40;1.02;;;6.50;99.90;;;;;;5075224;28;20047;-73
2022/04/16 01:32:40;;;;;;;1.50;1.40;;;6.00;99.90;;;;;;5074921;28;20035;-73
2022/04/16 01:35:07;;;;;;;5.95;2.58;;;6.00;99.90;;;;;;5058252;28;20085;-73
2022/04/16 01:37:37;;;;;;;1.42;1.17;;;5.90;99.90;;;;;;5074766;28;20510;-73
2022/04/16 01:40:05;;;;;;;3.00;1.52;;;5.80;99.90;;;;;;5074558;28;20687;-72
2022/04/16 01:42:32;;;;;;;2.50;2.22;;;5.90;99.90;;;;;;5091188;28;20074;-73
2022/04/16 01:45:02;;;;;;;0.90;0.75;;;5.90;99.90;;;;;;5074900;28;20048;-73
2022/04/16 01:47:28;;;;;;;3.22;1.25;;;5.80;99.90;;;;;;5074896;28;20036;-73
2022/04/16 01:49:55;;;;;;;1.77;1.17;;;5.80;99.90;;;;;;5074267;28;20461;-73
2022/04/16 01:52:24;;;;;;;2.28;0.93;;;5.80;99.90;;;;;;5091289;28;20427;-73
2022/04/16 01:54:53;;;;;;;2.13;1.00;;;6.40;99.90;;;;;;5091055;28;20036;-73
2022/04/16 01:57:19;;;;;;;3.05;1.30;;;5.80;99.90;;;;;;5074357;28;20091;-73
2022/04/16 01:59:46;;;;;;;2.28;1.10;;;5.80;99.90;;;;;;5074012;28;20048;-73
2022/04/16 02:02:12;;;;;;;1.63;0.95;;;5.70;99.90;;;;;;5091617;28;20051;-73
2022/04/16 02:04:38;;;;;;;1.60;1.35;;;5.90;99.90;;;;;;5090803;28;20038;-74
2022/04/16 02:07:04;;;;;;;1.30;0.90;;;6.00;99.90;;;;;;5091019;28;20115;-73
2022/04/16 02:09:29;;;;;;;5.65;1.88;;;6.00;99.90;;;;;;5090871;28;20040;-73
2022/04/16 02:11:55;;;;;;;1.55;1.08;;;6.00;99.90;;;;;;5090871;28;20044;-73
2022/04/16 02:14:21;;;;;;;1.63;1.00;;;5.80;99.90;;;;;;5074117;28;20092;-74
2022/04/16 02:16:48;;;;;;;3.17;1.08;;;6.10;99.90;;;;;;5091087;28;20044;-74
2022/04/16 02:19:14;;;;;;;1.75;0.98;;;6.00;99.90;;;;;;5057589;28;20052;-73
2022/04/16 02:21:41;;;;;;;2.10;1.15;;;6.40;99.90;;;;;;5073882;28;20609;-73
2022/04/16 02:24:07;;;;;;;1.48;0.85;;;6.10;99.90;;;;;;5090720;28;20064;-74
2022/04/16 02:26:33;;;;;;;1.00;0.80;;;6.20;99.90;;;;;;5090945;28;20047;-73
2022/04/16 02:28:59;;;;;;;0.52;0.43;;;6.30;99.90;;;;;;5077337;28;20032;-74
2022/04/16 02:31:26;;;;;;;2.53;1.35;;;6.40;99.90;;;;;;5078044;28;20055;-74
2022/04/16 02:33:52;;;;;;;3.00;1.95;;;6.50;99.90;;;;;;5095167;28;20503;-73
2022/04/16 02:36:19;;;;;;;1.60;0.75;;;6.60;99.90;;;;;;5095079;28;20128;-73
2022/04/16 02:38:47;;;;;;;2.55;2.20;;;6.60;99.90;;;;;;5094755;28;20048;-73
2022/04/16 02:41:14;;;;;;;1.80;1.35;;;7.50;99.90;;;;;;5078485;28;20055;-73
2022/04/16 02:43:39;;;;;;;4.78;1.50;;;7.10;99.90;;;;;;5078011;28;20036;-73
2022/04/16 02:48:49;;;;;;;2.47;1.05;;;7.00;99.90;;;;;;5094656;28;20445;-73
2022/04/16 02:51:15;;;;;;;2.08;0.93;;;7.30;99.90;;;;;;5061274;28;20055;-74
2022/04/16 02:53:41;;;;;;;3.15;1.35;;;7.20;99.90;;;;;;5094544;28;20093;-73
2022/04/16 02:56:07;;;;;;;4.13;0.98;;;7.20;99.90;;;;;;5094404;28;20040;-73
2022/04/16 02:58:33;;;;;;;1.25;1.02;;;7.70;99.90;;;;;;5060967;28;20238;-74
2022/04/16 03:00:58;;;;;;;3.90;1.52;;;7.40;99.90;;;;;;5077605;28;20044;-74
2022/04/16 03:03:24;;;;;;;5.32;1.63;;;7.40;99.90;;;;;;5077724;28;20047;-74
2022/04/16 03:05:50;;;;;;;1.85;1.58;;;7.40;99.90;;;;;;5077745;28;20040;-74
2022/04/16 03:08:15;;;;;;;5.22;1.73;;;8.00;99.90;;;;;;5077656;28;20075;-74
2022/04/16 03:10:41;;;;;;;3.17;1.35;;;7.60;99.90;;;;;;5077709;28;20395;-73
2022/04/16 03:13:08;;;;;;;6.07;2.20;;;7.60;99.90;;;;;;5094380;28;20044;-74
2022/04/16 03:18:18;;;;;;;4.22;2.25;;;7.70;99.90;;;;;;5094503;28;20040;-73
2022/04/16 03:20:44;;;;;;;2.35;1.83;;;7.80;99.90;;;;;;5093928;28;20043;-75
2022/04/16 03:23:10;;;;;;;2.13;1.80;;;7.80;99.90;;;;;;5077438;28;20048;-73
2022/04/16 03:25:46;;;;;;;2.58;1.88;;;7.80;99.90;;;;;;5093901;28;20044;-73
2022/04/16 03:28:12;;;;;;;4.70;3.10;;;7.80;99.90;;;;;;5061246;28;20032;-73
2022/04/16 03:30:38;;;;;;;2.38;2.00;;;7.90;99.90;;;;;;5094114;28;20177;-73
2022/04/16 03:33:04;;;;;;;2.70;1.27;;;8.00;99.90;;;;;;5077305;28;20051;-74
2022/04/16 03:35:30;;;;;;;2.88;1.50;;;7.90;99.90;;;;;;5094160;28;20389;-74
2022/04/16 03:37:56;;;;;;;2.05;1.38;;;7.90;99.90;;;;;;5093502;28;20036;-74
2022/04/16 03:40:26;;;;;;;3.90;1.75;;;7.90;99.90;;;;;;5093396;28;20048;-74
2022/04/16 03:42:56;;;;;;;3.42;2.20;;;8.00;99.90;;;;;;5093413;28;20043;-74
2022/04/16 03:45:33;;;;;;;2.83;1.95;;;7.90;99.90;;;;;;5093471;28;20035;-74
2022/04/16 03:48:00;;;;;;;3.88;1.73;;;7.80;99.90;;;;;;5093421;28;20130;-73
2022/04/16 03:50:28;;;;;;;5.45;1.63;;;8.40;99.90;;;;;;5093618;28;20043;-74
2022/04/16 03:52:55;;;;;;;2.85;2.03;;;8.00;99.90;;;;;;5093359;28;20079;-74
2022/04/16 04:01:04;;;;;;;5.50;1.77;;;8.10;99.90;;;;;;5093316;28;20044;-74
2022/04/16 04:03:30;;;;;;;2.90;1.90;;;8.00;99.90;;;;;;5093588;28;20079;-74
2022/04/16 04:05:58;;;;;;;4.00;2.70;;;8.00;99.90;;;;;;5076371;28;20071;-74
2022/04/16 04:08:27;;;;;;;3.25;2.63;;;8.50;99.90;;;;;;5093069;28;20096;-75
2022/04/16 04:10:53;;;;;;;3.80;2.50;;;8.00;99.90;;;;;;5077087;28;20040;-74
2022/04/16 04:13:20;;;;;;;3.58;1.90;;;8.00;99.90;;;;;;5093207;28;20126;-74
2022/04/16 04:15:46;;;;;;;3.78;1.65;;;8.00;99.90;;;;;;5076208;28;20096;-74
2022/04/16 04:18:12;;;;;;;6.47;2.50;;;8.00;99.90;;;;;;5076056;28;20133;-74
2022/04/16 04:20:37;;;;;;;2.17;1.73;;;8.80;99.90;;;;;;5093000;28;20517;-73
2022/04/16 04:23:04;;;;;;;2.50;2.30;;;8.60;99.90;;;;;;5076356;28;20080;-74
2022/04/16 04:25:30;;;;;;;3.08;2.05;;;7.90;99.90;;;;;;5092588;28;20055;-73
2022/04/16 04:27:56;;;;;;;5.63;2.17;;;7.90;99.90;;;;;;5092751;28;20123;-73
2022/04/16 04:30:22;;;;;;;4.25;2.08;;;7.90;99.90;;;;;;5092945;28;20047;-73
2022/04/16 04:32:48;;;;;;;2.15;1.23;;;7.80;99.90;;;;;;5092731;28;20047;-73
2022/04/16 04:35:14;;;;;;;3.65;2.22;;;8.00;99.90;;;;;;5092543;28;20051;-73
2022/04/16 04:37:40;;;;;;;1.60;1.30;;;7.40;99.90;;;;;;5075980;28;20047;-74
2022/04/16 04:40:06;;;;;;;5.05;2.20;;;8.40;99.90;;;;;;5092754;28;20044;-74
2022/04/16 04:42:34;;;;;;;3.67;2.83;;;7.70;99.90;;;;;;5092814;28;20036;-74
2022/04/16 04:45:13;;;;;;;4.60;3.08;;;7.80;99.90;;;;;;5092418;28;20077;-73
2022/04/16 04:47:39;;;;;;;6.57;2.45;;;7.70;99.90;;;;;;5092602;28;20039;-75
2022/04/16 04:50:07;;;;;;;0.65;0.55;;;7.70;99.90;;;;;;5091427;28;20047;-74
2022/04/16 04:52:35;;;;;;;4.63;1.73;;;7.70;99.90;;;;;;5092364;28;20047;-73
2022/04/16 04:55:01;;;;;;;2.30;1.10;;;7.60;99.90;;;;;;5092372;28;20113;-74
2022/04/16 04:57:27;;;;;;;3.08;2.05;;;7.90;99.90;;;;;;5075282;28;20044;-74
2022/04/16 04:59:53;;;;;;;2.20;1.27;;;7.70;99.90;;;;;;5092149;28;20044;-74
2022/04/16 05:02:19;;;;;;;5.13;2.22;;;7.60;99.90;;;;;;5075639;28;20036;-74
2022/04/16 05:04:46;;;;;;;4.63;1.52;;;7.60;99.90;;;;;;5092121;28;20050;-74
2022/04/16 05:07:12;;;;;;;1.75;1.65;;;7.80;99.90;;;;;;5075045;28;20165;-74
2022/04/16 05:09:38;;;;;;;4.20;1.67;;;7.60;99.90;;;;;;5091660;28;20475;-74
2022/04/16 05:12:04;;;;;;;2.15;1.38;;;8.00;99.90;;;;;;5091738;28;20058;-73
2022/04/16 05:14:31;;;;;;;3.63;1.75;;;7.70;99.90;;;;;;5091593;28;20059;-75
2022/04/16 05:16:58;;;;;;;1.15;1.10;;;7.50;99.90;;;;;;5075100;28;20484;-74
2022/04/16 05:19:24;;;;;;;4.60;1.77;;;7.70;99.90;;;;;;5091824;28;20487;-74
2022/04/16 05:21:49;;;;;;;5.47;2.60;;;7.70;99.90;;;;;;5091567;28;20042;-74
2022/04/16 05:24:15;;;;;;;3.10;1.90;;;7.70;99.90;;;;;;5091330;28;20056;-74
2022/04/16 05:26:41;;;;;;;2.00;1.08;;;7.80;99.90;;;;;;5074871;28;20400;-74
2022/04/16 05:29:07;;;;;;;2.85;2.40;;;7.70;99.90;;;;;;5091378;28;20126;-74
2022/04/16 05:31:33;;;;;;;2.42;1.75;;;7.80;99.90;;;;;;5091721;28;20048;-74
2022/04/16 05:36:44;;;;;;;3.08;1.98;;;7.80;99.90;;;;;;5091436;28;20055;-75
2022/04/16 05:39:10;;;;;;;4.10;2.50;;;7.70;99.90;;;;;;5091443;28;20051;-74
2022/04/16 05:41:36;;;;;;;2.78;2.28;;;7.70;99.90;;;;;;5091016;28;20055;-74
2022/04/16 05:44:03;;;;;;;2.92;1.67;;;7.50;99.90;;;;;;5091214;28;20044;-74
2022/04/16 05:46:29;;;;;;;4.53;1.15;;;7.70;99.90;;;;;;5074442;28;20080;-74
2022/04/16 05:48:55;;;;;;;4.07;1.27;;;7.70;99.90;;;;;;5074766;28;20079;-74
2022/04/16 05:51:21;;;;;;;1.63;1.20;;;7.80;99.90;;;;;;5057664;28;20043;-73
2022/04/16 05:53:48;;;;;;;3.25;1.25;;;7.80;99.90;;;;;;5091151;28;20092;-74
2022/04/16 05:56:15;;;;;;;2.08;1.40;;;7.90;99.90;;;;;;5091071;28;20040;-73
2022/04/16 05:58:42;;;;;;;1.88;1.20;;;7.90;99.90;;;;;;5091657;28;20044;-74
2022/04/16 06:01:09;;;;;;;1.20;1.10;;;7.90;99.90;;;;;;5074015;28;20503;-74
2022/04/16 06:03:42;;;;;;;5.35;1.73;;;8.00;99.90;;;;;;5093044;28;20563;-75
2022/04/16 06:06:08;;;;;;;1.73;1.33;;;7.90;99.90;;;;;;5074368;28;20036;-74
2022/04/16 06:08:37;;;;;;;1.95;1.30;;;8.10;99.90;;;;;;5090994;28;20109;-74
2022/04/16 06:11:04;;;;;;;2.60;0.90;;;8.20;99.90;;;;;;5090818;28;20044;-75
2022/04/16 06:13:30;;;;;;;2.75;1.42;;;8.10;99.90;;;;;;5073946;28;20160;-74
2022/04/16 06:15:57;;;;;;;1.25;1.15;;;8.90;99.90;;;;;;5090603;28;20521;-74
2022/04/16 06:18:23;;;;;;;2.33;0.85;;;9.10;99.90;;;;;;5074187;28;20379;-74
2022/04/16 06:20:48;;;;;;;2.20;1.65;;;8.50;99.90;;;;;;5090688;28;20047;-74
2022/04/16 06:23:14;;;;;;;6.35;1.67;;;8.30;99.90;;;;;;5090730;28;20123;-74
2022/04/16 06:25:39;;;;;;;1.42;1.30;;;8.50;99.90;;;;;;5073914;28;20044;-74
2022/04/16 06:28:06;;;;;;;2.05;1.55;;;8.50;99.90;;;;;;5073822;28;20073;-74
2022/04/16 06:30:31;;;;;;;0.60;0.60;;;8.60;99.90;;;;;;5090541;28;20044;-74
2022/04/16 06:32:57;;;;;;;2.90;1.30;;;8.60;99.90;;;;;;5073910;28;20044;-74
2022/04/16 06:35:23;;;;;;;2.13;1.20;;;8.70;99.90;;;;;;5090926;28;20040;-74
2022/04/16 06:37:49;;;;;;;3.00;1.67;;;8.60;99.90;;;;;;5057247;28;20046;-74
2022/04/16 06:40:14;;;;;;;3.67;1.45;;;8.70;99.90;;;;;;5090449;28;20131;-74
2022/04/16 06:42:40;;;;;;;2.20;1.38;;;8.80;99.90;;;;;;5090600;28;20040;-74
2022/04/16 06:45:09;;;;;;;1.75;1.10;;;8.90;99.90;;;;;;5090588;28;20040;-74
2022/04/16 06:47:36;;;;;;;0.80;0.70;;;9.00;99.90;;;;;;5073667;28;20048;-74
2022/04/16 06:50:04;;;;;;;3.00;1.48;;;9.00;99.90;;;;;;5057354;28;20052;-74
2022/04/16 06:52:29;;;;;;;1.17;0.73;;;9.10;99.90;;;;;;5090750;28;20040;-74
2022/04/16 06:54:57;;;;;;;2.10;1.90;;;9.50;99.90;;;;;;5090430;28;20433;-75
2022/04/16 06:57:23;;;;;;;1.02;0.60;;;9.20;99.90;;;;;;5074081;28;20059;-74
2022/04/16 06:59:48;;;;;;;1.70;1.15;;;9.30;99.90;;;;;;5073425;28;20169;-74
2022/04/16 07:02:14;;;;;;;3.17;1.38;;;9.30;99.90;;;;;;5073707;28;20538;-74
2022/04/16 07:04:41;;;;;;;3.60;1.08;;;9.50;99.90;;;;;;5090304;28;20078;-75
2022/04/16 07:07:08;;;;;;;0.95;0.85;;;9.60;99.90;;;;;;5090148;28;20046;-74
2022/04/16 07:09:38;;;;;;;3.50;0.93;;;10.00;99.90;;;;;;5073521;28;20040;-75
2022/04/16 07:12:09;;;;;;;0.90;0.68;;;10.10;99.90;;;;;;5073162;28;20040;-74
2022/04/16 07:14:39;;;;;;;2.58;0.40;;;9.80;99.90;;;;;;5092585;28;20051;-74
2022/04/16 07:17:05;;;;;;;5.53;1.10;;;9.90;99.90;;;;;;5093722;28;20047;-75
2022/04/16 07:19:32;;;;;;;0.55;0.40;;;9.80;99.90;;;;;;5093788;28;20028;-75
2022/04/16 07:21:58;;;;;;;1.13;0.55;;;10.70;99.90;;;;;;5076872;28;20479;-74
2022/04/16 07:24:27;;;;;;;4.03;1.02;;;9.90;99.90;;;;;;5093495;28;20044;-75
2022/04/16 07:26:54;;;;;;;1.67;1.55;;;9.80;99.90;;;;;;5093867;28;20407;-74
2022/04/16 07:29:25;;;;;;;0.85;0.45;;;9.90;99.90;;;;;;5093429;28;20112;-75
2022/04/16 07:31:51;;;;;;;1.85;1.08;;;10.00;99.90;;;;;;5093648;28;20079;-74
2022/04/16 07:34:17;;;;;;;1.40;0.95;;;10.90;99.90;;;;;;5076408;28;20118;-75
2022/04/16 07:36:44;;;;;;;2.60;0.95;;;10.70;99.90;;;;;;5093259;28;20135;-74
2022/04/16 07:39:11;;;;;;;1.65;1.17;;;10.60;99.90;;;;;;5093283;28;20101;-74
2022/04/16 07:41:37;;;;;;;0.52;0.52;;;10.40;99.90;;;;;;5076334;28;20080;-75
2022/04/16 07:44:03;;;;;;;0.88;0.77;;;10.30;99.90;;;;;;5059843;28;20036;-75
2022/04/16 07:46:30;;;;;;;4.28;1.35;;;10.40;99.90;;;;;;5093438;28;20040;-75
2022/04/16 07:48:57;;;;;;;1.67;1.08;;;10.40;99.90;;;;;;5093726;28;20062;-76
2022/04/16 07:51:23;;;;;;;0.77;0.77;;;10.90;99.90;;;;;;5093623;28;20055;-75
2022/04/16 07:53:49;;;;;;;2.55;0.93;;;10.80;99.90;;;;;;5076763;28;20075;-75
2022/04/16 07:56:15;;;;;;;0.90;0.73;;;10.70;99.90;;;;;;5093626;28;20044;-76
2022/04/16 07:58:41;;;;;;;3.88;1.08;;;11.00;99.90;;;;;;5076695;28;20044;-76
2022/04/16 08:01:07;;;;;;;1.65;1.02;;;10.90;99.90;;;;;;5076485;28;20044;-74
2022/04/16 08:03:32;;;;;;;1.80;1.17;;;10.90;99.90;;;;;;5076183;28;20076;-75
2022/04/16 08:05:58;;;;;;;1.55;0.95;;;11.80;99.90;;;;;;5076462;28;20785;-74
2022/04/16 08:08:24;;;;;;;1.38;1.27;;;11.10;99.90;;;;;;5093194;28;20051;-75
2022/04/16 08:10:51;;;;;;;1.55;0.88;;;11.00;99.90;;;;;;5076008;28;20083;-74
2022/04/16 08:13:18;;;;;;;1.10;0.80;;;10.80;99.90;;;;;;5059547;28;20089;-74
2022/04/16 08:15:45;;;;;;;1.40;1.30;;;11.00;99.90;;;;;;5093066;28;20083;-75
2022/04/16 08:18:12;;;;;;;1.90;0.93;;;11.00;99.90;;;;;;5076096;28;20558;-75
2022/04/16 08:20:37;;;;;;;3.28;1.15;;;11.30;99.90;;;;;;5092536;28;20040;-75
2022/04/16 08:23:06;;;;;;;0.40;0.32;;;11.10;99.90;;;;;;5059145;28;20046;-75
2022/04/16 08:28:02;;;;;;;1.65;0.73;;;11.50;99.90;;;;;;5092758;28;20052;-75
2022/04/16 08:30:28;;;;;;;1.70;0.63;;;11.50;99.90;;;;;;5092743;28;20051;-75
2022/04/16 08:32:53;;;;;;;2.22;0.57;;;11.40;99.90;;;;;;5092766;28;20491;-75
2022/04/16 08:35:20;;;;;;;1.73;0.90;;;11.30;99.90;;;;;;5058905;28;20044;-75
2022/04/16 08:37:48;;;;;;;1.75;0.70;;;11.40;99.90;;;;;;5075416;28;20086;-75
2022/04/16 08:40:14;;;;;;;2.00;1.10;;;11.20;99.90;;;;;;5058916;28;20069;-74
2022/04/16 08:42:42;;;;;;;0.63;0.63;;;11.20;99.90;;;;;;5092334;28;20039;-74
2022/04/16 08:45:10;;;;;;;0.68;0.68;;;11.30;99.90;;;;;;5092184;28;20440;-75
2022/04/16 08:47:38;;;;;;;0.75;0.47;;;11.30;99.90;;;;;;5092248;28;20040;-75
2022/04/16 08:50:06;;;;;;;0.82;0.60;;;11.40;99.90;;;;;;5075455;28;20098;-74
2022/04/16 08:52:35;;;;;;;1.13;0.60;;;11.60;99.90;;;;;;5091931;28;20044;-74
2022/04/16 08:55:04;;;;;;;0.75;0.50;;;12.20;99.90;;;;;;5092146;28;20066;-74
2022/04/16 08:57:30;;;;;;;1.05;0.77;;;11.50;99.90;;;;;;5092238;28;20450;-74
2022/04/16 08:59:57;;;;;;;0.50;0.50;;;11.90;99.90;;;;;;5091786;28;20044;-75
2022/04/16 09:02:28;;;;;;;0.25;0.25;;;11.60;99.90;;;;;;5075039;28;20040;-75
2022/04/16 09:05:09;;;;;;;0.50;0.50;;;11.90;99.90;;;;;;5091760;28;20036;-76
2022/04/16 09:07:47;;;;;;;0.47;0.47;;;12.10;99.90;;;;;;5091793;28;20079;-74
2022/04/16 09:10:13;;;;;;;0.35;0.35;;;12.20;99.90;;;;;;5091656;28;20047;-75
2022/04/16 09:12:40;;;;;;;1.17;0.73;;;12.00;99.90;;;;;;5092043;28;20487;-75
2022/04/16 09:15:11;;;;;;;1.92;0.68;;;11.90;99.90;;;;;;5091605;28;20059;-76
2022/04/16 09:17:38;;;;;;;0.45;0.45;;;12.10;99.90;;;;;;5091821;28;20044;-75
2022/04/16 09:20:14;;;;;;;0.63;0.60;;;11.90;99.90;;;;;;5091728;28;20511;-74
2022/04/16 09:22:41;;;;;;;2.15;0.85;;;12.00;99.90;;;;;;5091828;28;20145;-75
2022/04/16 09:25:16;;;;;;;1.35;0.30;;;12.10;99.90;;;;;;5058364;28;20458;-75
2022/04/16 09:27:49;;;;;;;0.80;0.80;;;12.30;99.90;;;;;;5074753;28;20415;-74
2022/04/16 09:30:31;;;;;;;0.55;0.47;;;12.20;99.20;;;;;;5091718;28;20613;-74
2022/04/16 09:32:58;;;;;;;0.85;0.73;;;12.20;99.90;;;;;;5075259;28;20499;-75
2022/04/16 09:35:35;;;;;;;0.52;0.52;;;12.20;98.50;;;;;;5091380;28;20073;-75
2022/04/16 09:38:03;;;;;;;0.32;0.32;;;12.00;99.00;;;;;;5090875;28;20078;-75
2022/04/16 09:40:31;;;;;;;0.25;0.25;;;12.00;96.20;;;;;;5091242;28;20046;-76
2022/04/16 09:43:00;;;;;;;0.10;0.10;;;12.20;97.10;;;;;;5091289;28;20040;-75
2022/04/16 09:45:27;;;;;;;0.25;0.25;;;12.40;95.60;;;;;;5091356;28;20042;-74
2022/04/16 09:47:53;;;;;;;0.68;0.52;;;12.20;95.70;;;;;;5074285;28;20040;-74
2022/04/16 09:50:25;;;;;;;0.20;0.20;;;12.40;95.70;;;;;;5074342;28;20127;-75
2022/04/16 09:52:54;;;;;;;0.40;0.32;;;12.30;95.60;;;;;;5091578;28;20509;-75
2022/04/16 09:55:23;;;;;;;0.80;0.47;;;12.40;95.90;;;;;;5091423;28;20533;-75
2022/04/16 09:58:06;;;;;;;0.22;0.22;;;12.50;95.50;;;;;;5091310;28;20562;-75
2022/04/16 10:00:34;;;;;;;0.17;0.17;;;12.60;94.50;;;;;;5090927;28;20044;-75
2022/04/16 10:03:00;;;;;;;0.20;0.20;;;12.60;94.20;;;;;;5090825;28;20040;-75
2022/04/16 10:05:26;;;;;;;0.20;0.20;;;13.10;94.90;;;;;;5091124;28;20542;-76
2022/04/16 10:07:53;;;;;;;0.30;0.30;;;12.90;94.80;;;;;;5091024;28;20438;-76
2022/04/16 10:10:25;;;;;;;0.15;0.15;;;13.10;95.20;;;;;;5074013;28;20299;-75
2022/04/16 10:13:04;;;;;;;0.40;0.40;;;13.00;94.70;;;;;;5075076;28;20403;-76
2022/04/16 10:15:36;;;;;;;0.30;0.30;;;12.90;90.40;;;;;;5090636;28;20047;-75
2022/04/16 10:18:02;;;;;;;0.10;0.10;;;12.80;91.40;;;;;;5090702;28;20076;-75
2022/04/16 10:20:28;;;;;;;3.90;0.57;;;13.00;93.80;;;;;;5090538;28;20043;-75
2022/04/16 10:22:54;;;;;;;0.20;0.20;;;13.20;92.60;;;;;;5090800;28;20105;-76
2022/04/16 10:25:34;;;;;;;0.40;0.40;;;13.10;91.30;;;;;;5073685;28;20529;-75
2022/04/16 10:28:03;;;;;;;0.68;0.60;;;12.80;85.00;;;;;;5073867;28;20036;-75
2022/04/16 10:30:41;;;;;;;0.10;0.10;;;12.80;90.50;;;;;;5073788;28;20042;-75
2022/04/16 10:33:23;;;;;;;0.38;0.30;;;12.90;91.20;;;;;;5073597;28;20044;-75
2022/04/16 10:35:56;;;;;;;0.10;0.10;;;13.00;85.30;;;;;;5090521;28;20040;-75
2022/04/16 10:38:33;;;;;;;0.10;0.10;;;13.10;88.90;;;;;;5073664;28;20048;-74
2022/04/16 10:41:09;;;;;;;0.38;0.30;;;13.20;84.90;;;;;;5090390;28;20044;-74
2022/04/16 10:43:34;;;;;;;0.20;0.20;;;13.30;87.50;;;;;;5090446;28;20043;-75
2022/04/16 10:46:06;;;;;;;0.30;0.30;;;13.30;84.60;;;;;;5073739;28;20491;-74
2022/04/16 10:48:37;;;;;;;1.35;0.47;;;13.20;84.50;;;;;;5091200;28;20051;-74
2022/04/16 10:51:04;;;;;;;0.17;0.17;;;13.20;81.40;;;;;;5094408;28;20051;-74
2022/04/16 10:53:34;;;;;;;0.20;0.20;;;13.20;80.50;;;;;;5094441;28;20131;-75
2022/04/16 10:56:20;;;;;;;0.20;0.20;;;13.30;84.40;;;;;;5094354;28;20126;-75
2022/04/16 10:58:59;;;;;;;0.20;0.20;;;13.30;83.80;;;;;;5077496;28;20083;-75
2022/04/16 11:01:27;;;;;;;0.20;0.20;;;13.40;81.80;;;;;;5094182;28;20048;-75
2022/04/16 11:03:54;;;;;;;0.20;0.20;;;13.50;87.10;;;;;;5094007;28;20035;-75
2022/04/16 11:06:20;;;;;;;0.20;0.20;;;13.40;82.40;;;;;;5077603;28;20068;-75
2022/04/16 11:08:46;;;;;;;0.20;0.20;;;13.50;85.20;;;;;;5060876;28;20118;-75
2022/04/16 11:11:16;;;;;;;0.10;0.10;;;13.50;86.60;;;;;;5077075;28;20098;-75
2022/04/16 11:13:43;;;;;;;0.28;0.28;;;13.60;86.00;;;;;;5093964;28;20044;-75
2022/04/16 11:16:10;;;;;;;0.20;0.20;;;13.70;89.70;;;;;;5076956;28;20087;-75
2022/04/16 11:18:42;;;;;;;1.20;0.63;;;13.60;86.30;;;;;;5076868;28;20097;-74
2022/04/16 11:21:13;;;;;;;0.30;0.30;;;13.80;80.10;;;;;;5093628;28;20123;-75
2022/04/16 11:23:44;;;;;;;0.65;0.40;;;13.40;78.10;;;;;;5093398;28;20036;-75
2022/04/16 11:34:31;;;;;;;0.17;0.17;;;13.70;81.20;;;;;;5093630;28;20052;-75
2022/04/16 11:36:58;;;;;;;0.20;0.20;;;13.70;80.70;;;;;;5093763;28;20036;-74
2022/04/16 11:39:26;;;;;;;0.32;0.32;;;13.60;78.00;;;;;;5076619;28;20072;-75
2022/04/16 11:42:03;;;;;;;0.10;0.10;;;13.50;78.00;;;;;;5093241;28;20086;-74
2022/04/16 11:44:29;;;;;;;0.22;0.22;;;13.60;76.60;;;;;;5093251;28;20054;-74
2022/04/16 11:46:55;;;;;;;0.20;0.20;;;13.40;76.80;;;;;;5093223;28;20044;-75
2022/04/16 11:49:22;;;;;;;0.30;0.30;;;13.60;76.70;;;;;;5093553;28;20103;-74
2022/04/16 11:51:47;;;;;;;0.82;0.60;;;13.80;79.20;;;;;;5093343;28;20495;-74
2022/04/16 11:54:13;;;;;;;0.60;0.43;;;13.70;75.40;;;;;;5093135;28;20097;-74
2022/04/16 11:56:39;;;;;;;0.30;0.30;;;13.80;77.90;;;;;;5093395;28;20044;-75
2022/04/16 11:59:04;;;;;;;1.50;0.45;;;14.00;79.20;;;;;;5092923;28;20048;-75
2022/04/16 12:01:30;;;;;;;1.08;0.40;;;14.40;75.50;;;;;;5093037;28;20040;-75
2022/04/16 12:04:06;;;;;;;0.20;0.20;;;14.00;75.60;;;;;;5093339;28;20062;-75
2022/04/16 12:06:35;;;;;;;0.20;0.20;;;14.20;79.40;;;;;;5092969;28;20123;-75
2022/04/16 12:09:01;;;;;;;0.20;0.20;;;14.20;75.60;;;;;;5093157;28;20050;-75
2022/04/16 12:11:28;;;;;;;0.28;0.28;;;14.20;70.70;;;;;;5059601;28;20040;-73
2022/04/16 12:13:54;;;;;;;0.20;0.20;;;14.20;71.30;;;;;;5092627;28;20044;-75
2022/04/16 12:16:20;;;;;;;0.13;0.13;;;14.20;69.30;;;;;;5092647;28;20079;-74
2022/04/16 12:18:48;;;;;;;0.90;0.90;;;14.30;70.40;;;;;;5092548;28;20517;-74
2022/04/16 12:21:16;;;;;;;0.17;0.17;;;14.70;74.10;;;;;;5092537;28;20044;-74
2022/04/16 12:23:44;;;;;;;0.30;0.25;;;14.80;71.20;;;;;;5075486;28;20051;-74
2022/04/16 12:26:11;;;;;;;1.60;0.52;;;15.00;72.30;;;;;;5075892;28;20077;-75
2022/04/16 12:28:39;;;;;;;0.80;0.65;;;14.80;71.50;;;;;;5075820;28;20395;-74
2022/04/16 12:31:05;;;;;;;0.38;0.38;;;14.80;70.70;;;;;;5075704;28;20044;-75
2022/04/16 12:33:30;;;;;;;0.10;0.10;;;14.90;68.70;;;;;;5092551;28;20047;-74
2022/04/16 12:35:58;;;;;;;0.20;0.20;;;14.80;68.70;;;;;;5075552;28;20036;-74
2022/04/16 12:38:25;;;;;;;0.25;0.25;;;14.80;71.10;;;;;;5092526;28;20054;-73
2022/04/16 12:40:52;;;;;;;0.68;0.30;;;14.70;72.50;;;;;;5092360;28;20051;-74
2022/04/16 12:43:18;;;;;;;0.10;0.10;;;14.80;70.60;;;;;;5092413;28;20039;-74
2022/04/16 12:45:44;;;;;;;0.30;0.30;;;14.70;70.80;;;;;;5075300;28;20127;-75
2022/04/16 12:48:09;;;;;;;0.50;0.50;;;15.00;73.20;;;;;;5058566;28;20380;-75
2022/04/16 12:50:35;;;;;;;0.63;0.63;;;15.00;71.10;;;;;;5058524;28;20046;-75
2022/04/16 12:53:04;;;;;;;0.20;0.20;;;14.90;70.30;;;;;;5092047;28;20135;-75
2022/04/16 12:55:29;;;;;;;0.20;0.20;;;15.10;72.30;;;;;;5091925;28;20048;-75
2022/04/16 12:57:56;;;;;;;0.30;0.30;;;15.20;71.00;;;;;;5075316;28;20048;-74
2022/04/16 13:00:22;;;;;;;0.30;0.30;;;15.20;72.60;;;;;;5091790;28;20123;-75
2022/04/16 13:02:48;;;;;;;0.40;0.22;;;15.10;70.30;;;;;;5092112;28;20118;-74
2022/04/16 13:05:17;;;;;;;0.13;0.13;;;15.20;70.80;;;;;;5091941;28;20039;-74
2022/04/16 13:07:45;;;;;;;0.20;0.20;;;15.10;69.80;;;;;;5091808;28;20040;-75
2022/04/16 13:10:13;;;;;;;0.25;0.25;;;15.20;69.10;;;;;;5074776;28;20043;-74
2022/04/16 13:12:39;;;;;;;0.20;0.20;;;15.30;71.10;;;;;;5091091;28;20044;-75
2022/04/16 13:15:06;;;;;;;0.68;0.60;;;15.20;69.10;;;;;;5091601;28;20040;-74
2022/04/16 13:17:31;;;;;;;0.20;0.20;;;15.20;68.10;;;;;;5091873;28;20044;-75
2022/04/16 13:19:59;;;;;;;0.25;0.22;;;15.30;71.30;;;;;;5091475;28;20047;-74